<?xml version="1.0" encoding="UTF-8" standalone="no" ?>
<gpx xmlns="http://www.topografix.com/GPX/1/1" xmlns:xsi="http://www.w3.org/2001/XMLSchema-instance" xsi:schemaLocation="http://www.topografix.com/GPX/1/1 http://www.topografix.com/GPX/1/1/gpx.xsd" version="1.1" creator="VisuGPX - https://www.visugpx.com">
  <metadata>
    <name>Chapotet</name>
    <desc><![CDATA[La Rochette, Preles, Florence Prodin.]]></desc>
  </metadata>
  <trk>
    <name><![CDATA[chapotet]]></name>
    <desc><![CDATA[<h1>OruxMaps</h1><br /><hr align="center" width="480" style="height: 2px; width: 517px"/><h2>Nom: chapotet</h2><br /><p>Temps de départ: 12/15/2013 14:10</p><p>Temps d'arrivée: 12/15/2013 17:39</p><p>Distance: 9 km (03:29)</p><p>Temps déplacement: 02:09</p><p>Vitesse moyenne: 2,6 km/h</p><p>Vitesse moyenne: 4,2 km/h</p><p>Vitess Max.: 5,9 km/h</p><p>Altitude minimale: 1344 m</p><p>Altitude maximale: 2072 m</p><p>Vitesse d'élévation: 397,2 m/h</p><p>Vitesse de descente: -531,4 m/h</p><p>Gain Altitude: 783 m</p><p>Perte Altitude: -787 m</p><p>Temps d'élévation: 01:58</p><p>Temps de descente: 01:28</p><hr align="center" width="480" style="height: 2px; width: 517px"/>]]></desc>
    <trkseg>
      <trkpt lat="45.44456" lon="6.16954">
        <ele>1349</ele>
        <time>2013-12-15T13:10:29Z</time>
      </trkpt>
      <trkpt lat="45.4445" lon="6.16978">
        <ele>1351</ele>
        <time>2013-12-15T13:12:09Z</time>
      </trkpt>
      <trkpt lat="45.44451" lon="6.17004">
        <ele>1359</ele>
        <time>2013-12-15T13:12:26Z</time>
      </trkpt>
      <trkpt lat="45.44454" lon="6.17029">
        <ele>1360</ele>
        <time>2013-12-15T13:12:47Z</time>
      </trkpt>
      <trkpt lat="45.44458" lon="6.17054">
        <ele>1361</ele>
        <time>2013-12-15T13:13:07Z</time>
      </trkpt>
      <trkpt lat="45.44464" lon="6.1708">
        <ele>1362</ele>
        <time>2013-12-15T13:13:30Z</time>
      </trkpt>
      <trkpt lat="45.44469" lon="6.17107">
        <ele>1371</ele>
        <time>2013-12-15T13:13:54Z</time>
      </trkpt>
      <trkpt lat="45.44473" lon="6.17133">
        <ele>1373</ele>
        <time>2013-12-15T13:14:19Z</time>
      </trkpt>
      <trkpt lat="45.44472" lon="6.17159">
        <ele>1373</ele>
        <time>2013-12-15T13:14:27Z</time>
      </trkpt>
      <trkpt lat="45.44466" lon="6.17183">
        <ele>1382</ele>
        <time>2013-12-15T13:14:42Z</time>
      </trkpt>
      <trkpt lat="45.44452" lon="6.172">
        <ele>1387</ele>
        <time>2013-12-15T13:15:02Z</time>
      </trkpt>
      <trkpt lat="45.44438" lon="6.17219">
        <ele>1391</ele>
        <time>2013-12-15T13:15:21Z</time>
      </trkpt>
      <trkpt lat="45.44431" lon="6.17244">
        <ele>1397</ele>
        <time>2013-12-15T13:15:46Z</time>
      </trkpt>
      <trkpt lat="45.44434" lon="6.17269">
        <ele>1398</ele>
        <time>2013-12-15T13:15:56Z</time>
      </trkpt>
      <trkpt lat="45.44438" lon="6.17296">
        <ele>1398</ele>
        <time>2013-12-15T13:16:15Z</time>
      </trkpt>
      <trkpt lat="45.44443" lon="6.1732">
        <ele>1400</ele>
        <time>2013-12-15T13:16:33Z</time>
      </trkpt>
      <trkpt lat="45.44451" lon="6.17344">
        <ele>1405</ele>
        <time>2013-12-15T13:16:47Z</time>
      </trkpt>
      <trkpt lat="45.44463" lon="6.17364">
        <ele>1403</ele>
        <time>2013-12-15T13:17:13Z</time>
      </trkpt>
      <trkpt lat="45.44467" lon="6.17391">
        <ele>1404</ele>
        <time>2013-12-15T13:17:31Z</time>
      </trkpt>
      <trkpt lat="45.44469" lon="6.17417">
        <ele>1411</ele>
        <time>2013-12-15T13:17:55Z</time>
      </trkpt>
      <trkpt lat="45.44462" lon="6.17442">
        <ele>1415</ele>
        <time>2013-12-15T13:18:16Z</time>
      </trkpt>
      <trkpt lat="45.44454" lon="6.17465">
        <ele>1418</ele>
        <time>2013-12-15T13:18:43Z</time>
      </trkpt>
      <trkpt lat="45.44449" lon="6.17491">
        <ele>1421</ele>
        <time>2013-12-15T13:19:07Z</time>
      </trkpt>
      <trkpt lat="45.44438" lon="6.17512">
        <ele>1431</ele>
        <time>2013-12-15T13:19:33Z</time>
      </trkpt>
      <trkpt lat="45.44433" lon="6.17537">
        <ele>1432</ele>
        <time>2013-12-15T13:19:58Z</time>
      </trkpt>
      <trkpt lat="45.44427" lon="6.17562">
        <ele>1436</ele>
        <time>2013-12-15T13:20:19Z</time>
      </trkpt>
      <trkpt lat="45.44428" lon="6.17588">
        <ele>1446</ele>
        <time>2013-12-15T13:20:47Z</time>
      </trkpt>
      <trkpt lat="45.44439" lon="6.1761">
        <ele>1444</ele>
        <time>2013-12-15T13:21:14Z</time>
      </trkpt>
      <trkpt lat="45.44452" lon="6.17631">
        <ele>1443</ele>
        <time>2013-12-15T13:21:49Z</time>
      </trkpt>
      <trkpt lat="45.44457" lon="6.17658">
        <ele>1445</ele>
        <time>2013-12-15T13:22:09Z</time>
      </trkpt>
      <trkpt lat="45.44455" lon="6.17684">
        <ele>1459</ele>
        <time>2013-12-15T13:22:42Z</time>
      </trkpt>
      <trkpt lat="45.44436" lon="6.17679">
        <ele>1462</ele>
        <time>2013-12-15T13:23:14Z</time>
      </trkpt>
      <trkpt lat="45.4442" lon="6.17665">
        <ele>1463</ele>
        <time>2013-12-15T13:23:37Z</time>
      </trkpt>
      <trkpt lat="45.44402" lon="6.17669">
        <ele>1476</ele>
        <time>2013-12-15T13:24:04Z</time>
      </trkpt>
      <trkpt lat="45.44384" lon="6.17661">
        <ele>1472</ele>
        <time>2013-12-15T13:24:35Z</time>
      </trkpt>
      <trkpt lat="45.44367" lon="6.17652">
        <ele>1476</ele>
        <time>2013-12-15T13:25:04Z</time>
      </trkpt>
      <trkpt lat="45.44348" lon="6.17651">
        <ele>1480</ele>
        <time>2013-12-15T13:25:36Z</time>
      </trkpt>
      <trkpt lat="45.4433" lon="6.17651">
        <ele>1492</ele>
        <time>2013-12-15T13:26:13Z</time>
      </trkpt>
      <trkpt lat="45.44323" lon="6.17628">
        <ele>1492</ele>
        <time>2013-12-15T13:26:30Z</time>
      </trkpt>
      <trkpt lat="45.44307" lon="6.17615">
        <ele>1491</ele>
        <time>2013-12-15T13:26:58Z</time>
      </trkpt>
      <trkpt lat="45.44288" lon="6.17613">
        <ele>1493</ele>
        <time>2013-12-15T13:27:19Z</time>
      </trkpt>
      <trkpt lat="45.44278" lon="6.17591">
        <ele>1491</ele>
        <time>2013-12-15T13:28:06Z</time>
      </trkpt>
      <trkpt lat="45.44267" lon="6.17571">
        <ele>1484</ele>
        <time>2013-12-15T13:28:24Z</time>
      </trkpt>
      <trkpt lat="45.44252" lon="6.17588">
        <ele>1490</ele>
        <time>2013-12-15T13:29:01Z</time>
      </trkpt>
      <trkpt lat="45.44249" lon="6.17614">
        <ele>1487</ele>
        <time>2013-12-15T13:29:26Z</time>
      </trkpt>
      <trkpt lat="45.44243" lon="6.17638">
        <ele>1491</ele>
        <time>2013-12-15T13:29:53Z</time>
      </trkpt>
      <trkpt lat="45.44237" lon="6.17663">
        <ele>1499</ele>
        <time>2013-12-15T13:30:19Z</time>
      </trkpt>
      <trkpt lat="45.44226" lon="6.17683">
        <ele>1508</ele>
        <time>2013-12-15T13:30:44Z</time>
      </trkpt>
      <trkpt lat="45.44217" lon="6.17705">
        <ele>1508</ele>
        <time>2013-12-15T13:31:11Z</time>
      </trkpt>
      <trkpt lat="45.44229" lon="6.17725">
        <ele>1514</ele>
        <time>2013-12-15T13:33:42Z</time>
      </trkpt>
      <trkpt lat="45.44231" lon="6.17751">
        <ele>1531</ele>
        <time>2013-12-15T13:34:07Z</time>
      </trkpt>
      <trkpt lat="45.44225" lon="6.17775">
        <ele>1533</ele>
        <time>2013-12-15T13:34:45Z</time>
      </trkpt>
      <trkpt lat="45.44224" lon="6.17801">
        <ele>1537</ele>
        <time>2013-12-15T13:35:42Z</time>
      </trkpt>
      <trkpt lat="45.44223" lon="6.17827">
        <ele>1542</ele>
        <time>2013-12-15T13:36:11Z</time>
      </trkpt>
      <trkpt lat="45.44216" lon="6.17851">
        <ele>1556</ele>
        <time>2013-12-15T13:36:41Z</time>
      </trkpt>
      <trkpt lat="45.44212" lon="6.17876">
        <ele>1558</ele>
        <time>2013-12-15T13:37:10Z</time>
      </trkpt>
      <trkpt lat="45.44206" lon="6.179">
        <ele>1560</ele>
        <time>2013-12-15T13:37:41Z</time>
      </trkpt>
      <trkpt lat="45.44209" lon="6.17925">
        <ele>1573</ele>
        <time>2013-12-15T13:38:54Z</time>
      </trkpt>
      <trkpt lat="45.44207" lon="6.17951">
        <ele>1575</ele>
        <time>2013-12-15T13:39:28Z</time>
      </trkpt>
      <trkpt lat="45.44216" lon="6.17974">
        <ele>1579</ele>
        <time>2013-12-15T13:40:15Z</time>
      </trkpt>
      <trkpt lat="45.44223" lon="6.17999">
        <ele>1584</ele>
        <time>2013-12-15T13:40:57Z</time>
      </trkpt>
      <trkpt lat="45.44228" lon="6.18024">
        <ele>1595</ele>
        <time>2013-12-15T13:41:50Z</time>
      </trkpt>
      <trkpt lat="45.44232" lon="6.1805">
        <ele>1598</ele>
        <time>2013-12-15T13:42:36Z</time>
      </trkpt>
      <trkpt lat="45.44237" lon="6.18074">
        <ele>1606</ele>
        <time>2013-12-15T13:43:19Z</time>
      </trkpt>
      <trkpt lat="45.44231" lon="6.181">
        <ele>1612</ele>
        <time>2013-12-15T13:43:52Z</time>
      </trkpt>
      <trkpt lat="45.44228" lon="6.18126">
        <ele>1613</ele>
        <time>2013-12-15T13:44:07Z</time>
      </trkpt>
      <trkpt lat="45.44227" lon="6.18152">
        <ele>1619</ele>
        <time>2013-12-15T13:44:40Z</time>
      </trkpt>
      <trkpt lat="45.44227" lon="6.18178">
        <ele>1632</ele>
        <time>2013-12-15T13:45:10Z</time>
      </trkpt>
      <trkpt lat="45.44224" lon="6.18203">
        <ele>1632</ele>
        <time>2013-12-15T13:45:32Z</time>
      </trkpt>
      <trkpt lat="45.44223" lon="6.18229">
        <ele>1637</ele>
        <time>2013-12-15T13:46:02Z</time>
      </trkpt>
      <trkpt lat="45.44216" lon="6.18253">
        <ele>1649</ele>
        <time>2013-12-15T13:46:31Z</time>
      </trkpt>
      <trkpt lat="45.44213" lon="6.18279">
        <ele>1650</ele>
        <time>2013-12-15T13:46:59Z</time>
      </trkpt>
      <trkpt lat="45.44209" lon="6.18304">
        <ele>1652</ele>
        <time>2013-12-15T13:47:33Z</time>
      </trkpt>
      <trkpt lat="45.44204" lon="6.1833">
        <ele>1652</ele>
        <time>2013-12-15T13:48:07Z</time>
      </trkpt>
      <trkpt lat="45.44198" lon="6.18357">
        <ele>1665</ele>
        <time>2013-12-15T13:49:10Z</time>
      </trkpt>
      <trkpt lat="45.44191" lon="6.18381">
        <ele>1667</ele>
        <time>2013-12-15T13:49:16Z</time>
      </trkpt>
      <trkpt lat="45.4419" lon="6.18407">
        <ele>1668</ele>
        <time>2013-12-15T13:49:42Z</time>
      </trkpt>
      <trkpt lat="45.44192" lon="6.18433">
        <ele>1676</ele>
        <time>2013-12-15T13:50:23Z</time>
      </trkpt>
      <trkpt lat="45.44186" lon="6.18458">
        <ele>1677</ele>
        <time>2013-12-15T13:50:48Z</time>
      </trkpt>
      <trkpt lat="45.44179" lon="6.18483">
        <ele>1677</ele>
        <time>2013-12-15T13:50:54Z</time>
      </trkpt>
      <trkpt lat="45.44178" lon="6.18509">
        <ele>1674</ele>
        <time>2013-12-15T13:51:17Z</time>
      </trkpt>
      <trkpt lat="45.44172" lon="6.18534">
        <ele>1675</ele>
        <time>2013-12-15T13:51:38Z</time>
      </trkpt>
      <trkpt lat="45.44164" lon="6.18558">
        <ele>1666</ele>
        <time>2013-12-15T13:51:56Z</time>
      </trkpt>
      <trkpt lat="45.44151" lon="6.18578">
        <ele>1667</ele>
        <time>2013-12-15T13:52:13Z</time>
      </trkpt>
      <trkpt lat="45.4414" lon="6.18599">
        <ele>1667</ele>
        <time>2013-12-15T13:52:32Z</time>
      </trkpt>
      <trkpt lat="45.44123" lon="6.18609">
        <ele>1667</ele>
        <time>2013-12-15T13:52:53Z</time>
      </trkpt>
      <trkpt lat="45.44106" lon="6.18618">
        <ele>1667</ele>
        <time>2013-12-15T13:53:11Z</time>
      </trkpt>
      <trkpt lat="45.44089" lon="6.18628">
        <ele>1668</ele>
        <time>2013-12-15T13:53:26Z</time>
      </trkpt>
      <trkpt lat="45.44075" lon="6.18645">
        <ele>1673</ele>
        <time>2013-12-15T13:53:45Z</time>
      </trkpt>
      <trkpt lat="45.44065" lon="6.18666">
        <ele>1674</ele>
        <time>2013-12-15T13:54:12Z</time>
      </trkpt>
      <trkpt lat="45.44057" lon="6.1869">
        <ele>1679</ele>
        <time>2013-12-15T13:55:07Z</time>
      </trkpt>
      <trkpt lat="45.44042" lon="6.18706">
        <ele>1681</ele>
        <time>2013-12-15T13:55:27Z</time>
      </trkpt>
      <trkpt lat="45.44027" lon="6.1872">
        <ele>1684</ele>
        <time>2013-12-15T13:55:54Z</time>
      </trkpt>
      <trkpt lat="45.44016" lon="6.18741">
        <ele>1691</ele>
        <time>2013-12-15T13:56:32Z</time>
      </trkpt>
      <trkpt lat="45.44005" lon="6.18761">
        <ele>1692</ele>
        <time>2013-12-15T13:57:05Z</time>
      </trkpt>
      <trkpt lat="45.43993" lon="6.18782">
        <ele>1708</ele>
        <time>2013-12-15T13:57:41Z</time>
      </trkpt>
      <trkpt lat="45.43983" lon="6.18803">
        <ele>1709</ele>
        <time>2013-12-15T13:58:17Z</time>
      </trkpt>
      <trkpt lat="45.43972" lon="6.18825">
        <ele>1709</ele>
        <time>2013-12-15T13:58:52Z</time>
      </trkpt>
      <trkpt lat="45.43965" lon="6.18848">
        <ele>1709</ele>
        <time>2013-12-15T13:59:26Z</time>
      </trkpt>
      <trkpt lat="45.43955" lon="6.18871">
        <ele>1710</ele>
        <time>2013-12-15T13:59:58Z</time>
      </trkpt>
      <trkpt lat="45.43943" lon="6.18891">
        <ele>1712</ele>
        <time>2013-12-15T14:00:34Z</time>
      </trkpt>
      <trkpt lat="45.43929" lon="6.18906">
        <ele>1718</ele>
        <time>2013-12-15T14:01:08Z</time>
      </trkpt>
      <trkpt lat="45.43918" lon="6.18927">
        <ele>1717</ele>
        <time>2013-12-15T14:01:47Z</time>
      </trkpt>
      <trkpt lat="45.43914" lon="6.18952">
        <ele>1734</ele>
        <time>2013-12-15T14:02:26Z</time>
      </trkpt>
      <trkpt lat="45.43903" lon="6.18972">
        <ele>1733</ele>
        <time>2013-12-15T14:03:07Z</time>
      </trkpt>
      <trkpt lat="45.43893" lon="6.18995">
        <ele>1732</ele>
        <time>2013-12-15T14:03:36Z</time>
      </trkpt>
      <trkpt lat="45.43884" lon="6.19018">
        <ele>1736</ele>
        <time>2013-12-15T14:04:16Z</time>
      </trkpt>
      <trkpt lat="45.43876" lon="6.19041">
        <ele>1740</ele>
        <time>2013-12-15T14:05:39Z</time>
      </trkpt>
      <trkpt lat="45.4387" lon="6.19066">
        <ele>1743</ele>
        <time>2013-12-15T14:06:16Z</time>
      </trkpt>
      <trkpt lat="45.4387" lon="6.19091">
        <ele>1750</ele>
        <time>2013-12-15T14:06:52Z</time>
      </trkpt>
      <trkpt lat="45.43875" lon="6.19116">
        <ele>1750</ele>
        <time>2013-12-15T14:07:27Z</time>
      </trkpt>
      <trkpt lat="45.43879" lon="6.19141">
        <ele>1751</ele>
        <time>2013-12-15T14:08:07Z</time>
      </trkpt>
      <trkpt lat="45.43889" lon="6.19163">
        <ele>1747</ele>
        <time>2013-12-15T14:08:47Z</time>
      </trkpt>
      <trkpt lat="45.43896" lon="6.19187">
        <ele>1751</ele>
        <time>2013-12-15T14:09:26Z</time>
      </trkpt>
      <trkpt lat="45.43898" lon="6.19213">
        <ele>1752</ele>
        <time>2013-12-15T14:09:57Z</time>
      </trkpt>
      <trkpt lat="45.43893" lon="6.19238">
        <ele>1751</ele>
        <time>2013-12-15T14:10:21Z</time>
      </trkpt>
      <trkpt lat="45.43895" lon="6.19263">
        <ele>1753</ele>
        <time>2013-12-15T14:10:49Z</time>
      </trkpt>
      <trkpt lat="45.43894" lon="6.19289">
        <ele>1758</ele>
        <time>2013-12-15T14:11:21Z</time>
      </trkpt>
      <trkpt lat="45.43891" lon="6.19315">
        <ele>1758</ele>
        <time>2013-12-15T14:11:50Z</time>
      </trkpt>
      <trkpt lat="45.43886" lon="6.1934">
        <ele>1758</ele>
        <time>2013-12-15T14:12:30Z</time>
      </trkpt>
      <trkpt lat="45.43883" lon="6.19365">
        <ele>1760</ele>
        <time>2013-12-15T14:12:54Z</time>
      </trkpt>
      <trkpt lat="45.43868" lon="6.19379">
        <ele>1764</ele>
        <time>2013-12-15T14:13:13Z</time>
      </trkpt>
      <trkpt lat="45.4385" lon="6.19382">
        <ele>1768</ele>
        <time>2013-12-15T14:13:45Z</time>
      </trkpt>
      <trkpt lat="45.43832" lon="6.19388">
        <ele>1787</ele>
        <time>2013-12-15T14:14:17Z</time>
      </trkpt>
      <trkpt lat="45.43814" lon="6.19392">
        <ele>1788</ele>
        <time>2013-12-15T14:14:46Z</time>
      </trkpt>
      <trkpt lat="45.43799" lon="6.19377">
        <ele>1791</ele>
        <time>2013-12-15T14:15:11Z</time>
      </trkpt>
      <trkpt lat="45.43783" lon="6.19365">
        <ele>1793</ele>
        <time>2013-12-15T14:15:36Z</time>
      </trkpt>
      <trkpt lat="45.43765" lon="6.19359">
        <ele>1794</ele>
        <time>2013-12-15T14:16:02Z</time>
      </trkpt>
      <trkpt lat="45.4375" lon="6.19373">
        <ele>1790</ele>
        <time>2013-12-15T14:16:35Z</time>
      </trkpt>
      <trkpt lat="45.43737" lon="6.19392">
        <ele>1790</ele>
        <time>2013-12-15T14:16:57Z</time>
      </trkpt>
      <trkpt lat="45.43724" lon="6.1941">
        <ele>1789</ele>
        <time>2013-12-15T14:17:21Z</time>
      </trkpt>
      <trkpt lat="45.43712" lon="6.19429">
        <ele>1791</ele>
        <time>2013-12-15T14:17:48Z</time>
      </trkpt>
      <trkpt lat="45.43708" lon="6.19455">
        <ele>1791</ele>
        <time>2013-12-15T14:18:13Z</time>
      </trkpt>
      <trkpt lat="45.43707" lon="6.19481">
        <ele>1792</ele>
        <time>2013-12-15T14:18:42Z</time>
      </trkpt>
      <trkpt lat="45.43703" lon="6.19507">
        <ele>1795</ele>
        <time>2013-12-15T14:19:25Z</time>
      </trkpt>
      <trkpt lat="45.43703" lon="6.19534">
        <ele>1796</ele>
        <time>2013-12-15T14:20:04Z</time>
      </trkpt>
      <trkpt lat="45.43697" lon="6.19559">
        <ele>1798</ele>
        <time>2013-12-15T14:20:33Z</time>
      </trkpt>
      <trkpt lat="45.43693" lon="6.19584">
        <ele>1806</ele>
        <time>2013-12-15T14:29:57Z</time>
      </trkpt>
      <trkpt lat="45.4368" lon="6.19603">
        <ele>1809</ele>
        <time>2013-12-15T14:30:19Z</time>
      </trkpt>
      <trkpt lat="45.43672" lon="6.19626">
        <ele>1811</ele>
        <time>2013-12-15T14:30:46Z</time>
      </trkpt>
      <trkpt lat="45.43661" lon="6.19647">
        <ele>1822</ele>
        <time>2013-12-15T14:31:14Z</time>
      </trkpt>
      <trkpt lat="45.43663" lon="6.19673">
        <ele>1832</ele>
        <time>2013-12-15T14:31:41Z</time>
      </trkpt>
      <trkpt lat="45.43662" lon="6.19699">
        <ele>1836</ele>
        <time>2013-12-15T14:32:05Z</time>
      </trkpt>
      <trkpt lat="45.43654" lon="6.19722">
        <ele>1840</ele>
        <time>2013-12-15T14:32:28Z</time>
      </trkpt>
      <trkpt lat="45.43646" lon="6.19746">
        <ele>1842</ele>
        <time>2013-12-15T14:32:54Z</time>
      </trkpt>
      <trkpt lat="45.43645" lon="6.19771">
        <ele>1853</ele>
        <time>2013-12-15T14:33:26Z</time>
      </trkpt>
      <trkpt lat="45.43639" lon="6.19796">
        <ele>1855</ele>
        <time>2013-12-15T14:34:03Z</time>
      </trkpt>
      <trkpt lat="45.43641" lon="6.19822">
        <ele>1857</ele>
        <time>2013-12-15T14:34:47Z</time>
      </trkpt>
      <trkpt lat="45.43632" lon="6.19844">
        <ele>1867</ele>
        <time>2013-12-15T14:35:20Z</time>
      </trkpt>
      <trkpt lat="45.43628" lon="6.1987">
        <ele>1870</ele>
        <time>2013-12-15T14:35:58Z</time>
      </trkpt>
      <trkpt lat="45.43612" lon="6.19881">
        <ele>1872</ele>
        <time>2013-12-15T14:36:34Z</time>
      </trkpt>
      <trkpt lat="45.43603" lon="6.19904">
        <ele>1877</ele>
        <time>2013-12-15T14:37:23Z</time>
      </trkpt>
      <trkpt lat="45.43593" lon="6.19926">
        <ele>1887</ele>
        <time>2013-12-15T14:38:02Z</time>
      </trkpt>
      <trkpt lat="45.43578" lon="6.19942">
        <ele>1892</ele>
        <time>2013-12-15T14:38:45Z</time>
      </trkpt>
      <trkpt lat="45.4357" lon="6.19965">
        <ele>1896</ele>
        <time>2013-12-15T14:40:06Z</time>
      </trkpt>
      <trkpt lat="45.43573" lon="6.19991">
        <ele>1903</ele>
        <time>2013-12-15T14:41:19Z</time>
      </trkpt>
      <trkpt lat="45.43571" lon="6.20017">
        <ele>1914</ele>
        <time>2013-12-15T14:42:17Z</time>
      </trkpt>
      <trkpt lat="45.43567" lon="6.20042">
        <ele>1917</ele>
        <time>2013-12-15T14:42:50Z</time>
      </trkpt>
      <trkpt lat="45.43561" lon="6.20067">
        <ele>1921</ele>
        <time>2013-12-15T14:43:20Z</time>
      </trkpt>
      <trkpt lat="45.43566" lon="6.20092">
        <ele>1932</ele>
        <time>2013-12-15T14:43:57Z</time>
      </trkpt>
      <trkpt lat="45.43569" lon="6.20117">
        <ele>1933</ele>
        <time>2013-12-15T14:45:56Z</time>
      </trkpt>
      <trkpt lat="45.43553" lon="6.2013">
        <ele>1933</ele>
        <time>2013-12-15T14:46:33Z</time>
      </trkpt>
      <trkpt lat="45.43541" lon="6.2015">
        <ele>1935</ele>
        <time>2013-12-15T14:46:56Z</time>
      </trkpt>
      <trkpt lat="45.43529" lon="6.20169">
        <ele>1943</ele>
        <time>2013-12-15T14:47:25Z</time>
      </trkpt>
      <trkpt lat="45.43525" lon="6.20195">
        <ele>1944</ele>
        <time>2013-12-15T14:47:59Z</time>
      </trkpt>
      <trkpt lat="45.43512" lon="6.20213">
        <ele>1947</ele>
        <time>2013-12-15T14:48:45Z</time>
      </trkpt>
      <trkpt lat="45.43508" lon="6.20238">
        <ele>1953</ele>
        <time>2013-12-15T14:49:11Z</time>
      </trkpt>
      <trkpt lat="45.43494" lon="6.20256">
        <ele>1964</ele>
        <time>2013-12-15T14:49:35Z</time>
      </trkpt>
      <trkpt lat="45.43478" lon="6.20267">
        <ele>1967</ele>
        <time>2013-12-15T14:50:13Z</time>
      </trkpt>
      <trkpt lat="45.43465" lon="6.20285">
        <ele>1969</ele>
        <time>2013-12-15T14:50:45Z</time>
      </trkpt>
      <trkpt lat="45.43455" lon="6.20308">
        <ele>1971</ele>
        <time>2013-12-15T14:54:35Z</time>
      </trkpt>
      <trkpt lat="45.43438" lon="6.20318">
        <ele>1975</ele>
        <time>2013-12-15T14:54:50Z</time>
      </trkpt>
      <trkpt lat="45.4342" lon="6.2031">
        <ele>1976</ele>
        <time>2013-12-15T14:55:06Z</time>
      </trkpt>
      <trkpt lat="45.43402" lon="6.20303">
        <ele>1980</ele>
        <time>2013-12-15T14:55:22Z</time>
      </trkpt>
      <trkpt lat="45.43388" lon="6.20321">
        <ele>1982</ele>
        <time>2013-12-15T14:55:39Z</time>
      </trkpt>
      <trkpt lat="45.43377" lon="6.20341">
        <ele>1987</ele>
        <time>2013-12-15T14:55:55Z</time>
      </trkpt>
      <trkpt lat="45.43362" lon="6.20357">
        <ele>1987</ele>
        <time>2013-12-15T14:56:12Z</time>
      </trkpt>
      <trkpt lat="45.43348" lon="6.20374">
        <ele>1987</ele>
        <time>2013-12-15T14:56:33Z</time>
      </trkpt>
      <trkpt lat="45.43332" lon="6.20385">
        <ele>1990</ele>
        <time>2013-12-15T14:56:50Z</time>
      </trkpt>
      <trkpt lat="45.43319" lon="6.20404">
        <ele>1990</ele>
        <time>2013-12-15T14:57:05Z</time>
      </trkpt>
      <trkpt lat="45.43314" lon="6.2043">
        <ele>1992</ele>
        <time>2013-12-15T14:57:22Z</time>
      </trkpt>
      <trkpt lat="45.43308" lon="6.20454">
        <ele>1994</ele>
        <time>2013-12-15T14:57:40Z</time>
      </trkpt>
      <trkpt lat="45.43301" lon="6.20477">
        <ele>1994</ele>
        <time>2013-12-15T14:57:55Z</time>
      </trkpt>
      <trkpt lat="45.43297" lon="6.20503">
        <ele>1998</ele>
        <time>2013-12-15T14:58:17Z</time>
      </trkpt>
      <trkpt lat="45.43288" lon="6.20525">
        <ele>2000</ele>
        <time>2013-12-15T14:58:35Z</time>
      </trkpt>
      <trkpt lat="45.43277" lon="6.20545">
        <ele>2002</ele>
        <time>2013-12-15T14:58:56Z</time>
      </trkpt>
      <trkpt lat="45.43267" lon="6.20567">
        <ele>2007</ele>
        <time>2013-12-15T14:59:25Z</time>
      </trkpt>
      <trkpt lat="45.4326" lon="6.20591">
        <ele>2013</ele>
        <time>2013-12-15T14:59:59Z</time>
      </trkpt>
      <trkpt lat="45.43247" lon="6.20608">
        <ele>2027</ele>
        <time>2013-12-15T15:00:42Z</time>
      </trkpt>
      <trkpt lat="45.4324" lon="6.20633">
        <ele>2030</ele>
        <time>2013-12-15T15:01:14Z</time>
      </trkpt>
      <trkpt lat="45.43224" lon="6.20647">
        <ele>2032</ele>
        <time>2013-12-15T15:01:39Z</time>
      </trkpt>
      <trkpt lat="45.43211" lon="6.20664">
        <ele>2034</ele>
        <time>2013-12-15T15:02:18Z</time>
      </trkpt>
      <trkpt lat="45.432" lon="6.20686">
        <ele>2041</ele>
        <time>2013-12-15T15:03:03Z</time>
      </trkpt>
      <trkpt lat="45.43185" lon="6.20699">
        <ele>2043</ele>
        <time>2013-12-15T15:03:35Z</time>
      </trkpt>
      <trkpt lat="45.43173" lon="6.20718">
        <ele>2045</ele>
        <time>2013-12-15T15:04:24Z</time>
      </trkpt>
      <trkpt lat="45.43157" lon="6.20731">
        <ele>2056</ele>
        <time>2013-12-15T15:04:48Z</time>
      </trkpt>
      <trkpt lat="45.43153" lon="6.20756">
        <ele>2060</ele>
        <time>2013-12-15T15:05:16Z</time>
      </trkpt>
      <trkpt lat="45.43147" lon="6.20781">
        <ele>2062</ele>
        <time>2013-12-15T15:05:43Z</time>
      </trkpt>
      <trkpt lat="45.43132" lon="6.20797">
        <ele>2064</ele>
        <time>2013-12-15T15:05:59Z</time>
      </trkpt>
      <trkpt lat="45.43116" lon="6.2081">
        <ele>2065</ele>
        <time>2013-12-15T15:06:17Z</time>
      </trkpt>
      <trkpt lat="45.43105" lon="6.2083">
        <ele>2067</ele>
        <time>2013-12-15T15:06:34Z</time>
      </trkpt>
      <trkpt lat="45.43112" lon="6.20855">
        <ele>2066</ele>
        <time>2013-12-15T15:06:50Z</time>
      </trkpt>
      <trkpt lat="45.43119" lon="6.20878">
        <ele>2064</ele>
        <time>2013-12-15T15:07:00Z</time>
      </trkpt>
      <trkpt lat="45.43124" lon="6.20904">
        <ele>2064</ele>
        <time>2013-12-15T15:07:18Z</time>
      </trkpt>
      <trkpt lat="45.43117" lon="6.20879">
        <ele>2065</ele>
        <time>2013-12-15T15:09:48Z</time>
      </trkpt>
      <trkpt lat="45.4311" lon="6.20855">
        <ele>2066</ele>
        <time>2013-12-15T15:10:04Z</time>
      </trkpt>
      <trkpt lat="45.43102" lon="6.20831">
        <ele>2067</ele>
        <time>2013-12-15T15:10:28Z</time>
      </trkpt>
      <trkpt lat="45.43087" lon="6.20814">
        <ele>2067</ele>
        <time>2013-12-15T15:10:42Z</time>
      </trkpt>
      <trkpt lat="45.43092" lon="6.20789">
        <ele>2066</ele>
        <time>2013-12-15T15:10:56Z</time>
      </trkpt>
      <trkpt lat="45.43102" lon="6.20766">
        <ele>2065</ele>
        <time>2013-12-15T15:11:15Z</time>
      </trkpt>
      <trkpt lat="45.43117" lon="6.20749">
        <ele>2060</ele>
        <time>2013-12-15T15:11:30Z</time>
      </trkpt>
      <trkpt lat="45.431" lon="6.20762">
        <ele>2066</ele>
        <time>2013-12-15T15:13:43Z</time>
      </trkpt>
      <trkpt lat="45.43087" lon="6.20781">
        <ele>2066</ele>
        <time>2013-12-15T15:13:58Z</time>
      </trkpt>
      <trkpt lat="45.43076" lon="6.20802">
        <ele>2065</ele>
        <time>2013-12-15T15:14:15Z</time>
      </trkpt>
      <trkpt lat="45.4306" lon="6.20816">
        <ele>2065</ele>
        <time>2013-12-15T15:14:30Z</time>
      </trkpt>
      <trkpt lat="45.43042" lon="6.20823">
        <ele>2064</ele>
        <time>2013-12-15T15:14:50Z</time>
      </trkpt>
      <trkpt lat="45.43029" lon="6.20842">
        <ele>2064</ele>
        <time>2013-12-15T15:19:04Z</time>
      </trkpt>
      <trkpt lat="45.43014" lon="6.20857">
        <ele>2064</ele>
        <time>2013-12-15T15:19:24Z</time>
      </trkpt>
      <trkpt lat="45.42996" lon="6.20866">
        <ele>2052</ele>
        <time>2013-12-15T15:19:42Z</time>
      </trkpt>
      <trkpt lat="45.43013" lon="6.20855">
        <ele>2064</ele>
        <time>2013-12-15T15:20:57Z</time>
      </trkpt>
      <trkpt lat="45.43032" lon="6.20854">
        <ele>2065</ele>
        <time>2013-12-15T15:21:18Z</time>
      </trkpt>
      <trkpt lat="45.4305" lon="6.20855">
        <ele>2066</ele>
        <time>2013-12-15T15:21:51Z</time>
      </trkpt>
      <trkpt lat="45.43069" lon="6.20849">
        <ele>2068</ele>
        <time>2013-12-15T15:23:34Z</time>
      </trkpt>
      <trkpt lat="45.43087" lon="6.20841">
        <ele>2069</ele>
        <time>2013-12-15T15:24:02Z</time>
      </trkpt>
      <trkpt lat="45.43101" lon="6.20822">
        <ele>2067</ele>
        <time>2013-12-15T15:24:22Z</time>
      </trkpt>
      <trkpt lat="45.43117" lon="6.20807">
        <ele>2065</ele>
        <time>2013-12-15T15:24:40Z</time>
      </trkpt>
      <trkpt lat="45.43133" lon="6.20791">
        <ele>2063</ele>
        <time>2013-12-15T15:24:55Z</time>
      </trkpt>
      <trkpt lat="45.43145" lon="6.2077">
        <ele>2062</ele>
        <time>2013-12-15T15:25:12Z</time>
      </trkpt>
      <trkpt lat="45.4315" lon="6.20745">
        <ele>2057</ele>
        <time>2013-12-15T15:25:31Z</time>
      </trkpt>
      <trkpt lat="45.43161" lon="6.20725">
        <ele>2056</ele>
        <time>2013-12-15T15:25:48Z</time>
      </trkpt>
      <trkpt lat="45.43177" lon="6.20711">
        <ele>2044</ele>
        <time>2013-12-15T15:26:06Z</time>
      </trkpt>
      <trkpt lat="45.43189" lon="6.20691">
        <ele>2042</ele>
        <time>2013-12-15T15:26:31Z</time>
      </trkpt>
      <trkpt lat="45.43203" lon="6.20675">
        <ele>2040</ele>
        <time>2013-12-15T15:27:00Z</time>
      </trkpt>
      <trkpt lat="45.43215" lon="6.20656">
        <ele>2034</ele>
        <time>2013-12-15T15:27:21Z</time>
      </trkpt>
      <trkpt lat="45.4323" lon="6.20642">
        <ele>2031</ele>
        <time>2013-12-15T15:27:37Z</time>
      </trkpt>
      <trkpt lat="45.43241" lon="6.2062">
        <ele>2029</ele>
        <time>2013-12-15T15:27:56Z</time>
      </trkpt>
      <trkpt lat="45.43251" lon="6.20599">
        <ele>2013</ele>
        <time>2013-12-15T15:28:17Z</time>
      </trkpt>
      <trkpt lat="45.43262" lon="6.20579">
        <ele>2010</ele>
        <time>2013-12-15T15:28:37Z</time>
      </trkpt>
      <trkpt lat="45.4327" lon="6.20554">
        <ele>2004</ele>
        <time>2013-12-15T15:28:56Z</time>
      </trkpt>
      <trkpt lat="45.43279" lon="6.20531">
        <ele>2001</ele>
        <time>2013-12-15T15:29:13Z</time>
      </trkpt>
      <trkpt lat="45.43289" lon="6.20508">
        <ele>1999</ele>
        <time>2013-12-15T15:29:29Z</time>
      </trkpt>
      <trkpt lat="45.43294" lon="6.20483">
        <ele>1995</ele>
        <time>2013-12-15T15:29:45Z</time>
      </trkpt>
      <trkpt lat="45.43301" lon="6.20458">
        <ele>1994</ele>
        <time>2013-12-15T15:30:02Z</time>
      </trkpt>
      <trkpt lat="45.43309" lon="6.20434">
        <ele>1993</ele>
        <time>2013-12-15T15:30:17Z</time>
      </trkpt>
      <trkpt lat="45.43313" lon="6.20408">
        <ele>1990</ele>
        <time>2013-12-15T15:30:33Z</time>
      </trkpt>
      <trkpt lat="45.43326" lon="6.20389">
        <ele>1990</ele>
        <time>2013-12-15T15:30:50Z</time>
      </trkpt>
      <trkpt lat="45.43342" lon="6.20375">
        <ele>1987</ele>
        <time>2013-12-15T15:31:06Z</time>
      </trkpt>
      <trkpt lat="45.43357" lon="6.2036">
        <ele>1987</ele>
        <time>2013-12-15T15:31:23Z</time>
      </trkpt>
      <trkpt lat="45.43372" lon="6.20344">
        <ele>1987</ele>
        <time>2013-12-15T15:31:42Z</time>
      </trkpt>
      <trkpt lat="45.43383" lon="6.20324">
        <ele>1982</ele>
        <time>2013-12-15T15:32:02Z</time>
      </trkpt>
      <trkpt lat="45.43395" lon="6.20305">
        <ele>1980</ele>
        <time>2013-12-15T15:32:21Z</time>
      </trkpt>
      <trkpt lat="45.43411" lon="6.2029">
        <ele>1978</ele>
        <time>2013-12-15T15:32:36Z</time>
      </trkpt>
      <trkpt lat="45.43425" lon="6.20272">
        <ele>1969</ele>
        <time>2013-12-15T15:32:53Z</time>
      </trkpt>
      <trkpt lat="45.43439" lon="6.20255">
        <ele>1968</ele>
        <time>2013-12-15T15:33:09Z</time>
      </trkpt>
      <trkpt lat="45.43456" lon="6.20245">
        <ele>1956</ele>
        <time>2013-12-15T15:33:26Z</time>
      </trkpt>
      <trkpt lat="45.43475" lon="6.20238">
        <ele>1956</ele>
        <time>2013-12-15T15:33:43Z</time>
      </trkpt>
      <trkpt lat="45.43489" lon="6.20222">
        <ele>1954</ele>
        <time>2013-12-15T15:34:07Z</time>
      </trkpt>
      <trkpt lat="45.43499" lon="6.20199">
        <ele>1950</ele>
        <time>2013-12-15T15:34:26Z</time>
      </trkpt>
      <trkpt lat="45.4351" lon="6.20179">
        <ele>1944</ele>
        <time>2013-12-15T15:34:48Z</time>
      </trkpt>
      <trkpt lat="45.43524" lon="6.20161">
        <ele>1937</ele>
        <time>2013-12-15T15:35:06Z</time>
      </trkpt>
      <trkpt lat="45.43538" lon="6.20145">
        <ele>1934</ele>
        <time>2013-12-15T15:36:42Z</time>
      </trkpt>
      <trkpt lat="45.43545" lon="6.20121">
        <ele>1932</ele>
        <time>2013-12-15T15:37:01Z</time>
      </trkpt>
      <trkpt lat="45.43549" lon="6.20096">
        <ele>1931</ele>
        <time>2013-12-15T15:37:24Z</time>
      </trkpt>
      <trkpt lat="45.43559" lon="6.20074">
        <ele>1921</ele>
        <time>2013-12-15T15:37:50Z</time>
      </trkpt>
      <trkpt lat="45.43557" lon="6.20048">
        <ele>1917</ele>
        <time>2013-12-15T15:38:21Z</time>
      </trkpt>
      <trkpt lat="45.43561" lon="6.20022">
        <ele>1914</ele>
        <time>2013-12-15T15:38:38Z</time>
      </trkpt>
      <trkpt lat="45.43565" lon="6.19997">
        <ele>1902</ele>
        <time>2013-12-15T15:38:59Z</time>
      </trkpt>
      <trkpt lat="45.4356" lon="6.19971">
        <ele>1896</ele>
        <time>2013-12-15T15:39:15Z</time>
      </trkpt>
      <trkpt lat="45.43572" lon="6.19951">
        <ele>1893</ele>
        <time>2013-12-15T15:39:39Z</time>
      </trkpt>
      <trkpt lat="45.43584" lon="6.19932">
        <ele>1888</ele>
        <time>2013-12-15T15:40:02Z</time>
      </trkpt>
      <trkpt lat="45.43595" lon="6.1991">
        <ele>1881</ele>
        <time>2013-12-15T15:40:25Z</time>
      </trkpt>
      <trkpt lat="45.436" lon="6.19885">
        <ele>1874</ele>
        <time>2013-12-15T15:40:49Z</time>
      </trkpt>
      <trkpt lat="45.4361" lon="6.19863">
        <ele>1871</ele>
        <time>2013-12-15T15:41:07Z</time>
      </trkpt>
      <trkpt lat="45.43621" lon="6.19842">
        <ele>1868</ele>
        <time>2013-12-15T15:41:27Z</time>
      </trkpt>
      <trkpt lat="45.4362" lon="6.19815">
        <ele>1858</ele>
        <time>2013-12-15T15:41:50Z</time>
      </trkpt>
      <trkpt lat="45.43637" lon="6.19807">
        <ele>1856</ele>
        <time>2013-12-15T15:42:11Z</time>
      </trkpt>
      <trkpt lat="45.43641" lon="6.19781">
        <ele>1854</ele>
        <time>2013-12-15T15:42:33Z</time>
      </trkpt>
      <trkpt lat="45.43639" lon="6.19754">
        <ele>1852</ele>
        <time>2013-12-15T15:42:58Z</time>
      </trkpt>
      <trkpt lat="45.43647" lon="6.1973">
        <ele>1840</ele>
        <time>2013-12-15T15:43:16Z</time>
      </trkpt>
      <trkpt lat="45.43656" lon="6.19707">
        <ele>1837</ele>
        <time>2013-12-15T15:43:37Z</time>
      </trkpt>
      <trkpt lat="45.43656" lon="6.19681">
        <ele>1834</ele>
        <time>2013-12-15T15:43:58Z</time>
      </trkpt>
      <trkpt lat="45.43654" lon="6.19655">
        <ele>1823</ele>
        <time>2013-12-15T15:44:15Z</time>
      </trkpt>
      <trkpt lat="45.43662" lon="6.19631">
        <ele>1818</ele>
        <time>2013-12-15T15:44:37Z</time>
      </trkpt>
      <trkpt lat="45.43672" lon="6.19607">
        <ele>1810</ele>
        <time>2013-12-15T15:45:00Z</time>
      </trkpt>
      <trkpt lat="45.43678" lon="6.19582">
        <ele>1807</ele>
        <time>2013-12-15T15:45:23Z</time>
      </trkpt>
      <trkpt lat="45.43659" lon="6.19583">
        <ele>1809</ele>
        <time>2013-12-15T15:48:33Z</time>
      </trkpt>
      <trkpt lat="45.43647" lon="6.19602">
        <ele>1813</ele>
        <time>2013-12-15T15:48:50Z</time>
      </trkpt>
      <trkpt lat="45.4363" lon="6.19615">
        <ele>1813</ele>
        <time>2013-12-15T15:49:08Z</time>
      </trkpt>
      <trkpt lat="45.43618" lon="6.19594">
        <ele>1808</ele>
        <time>2013-12-15T15:49:31Z</time>
      </trkpt>
      <trkpt lat="45.43605" lon="6.19576">
        <ele>1791</ele>
        <time>2013-12-15T15:49:50Z</time>
      </trkpt>
      <trkpt lat="45.43587" lon="6.19581">
        <ele>1789</ele>
        <time>2013-12-15T15:50:12Z</time>
      </trkpt>
      <trkpt lat="45.43572" lon="6.19566">
        <ele>1771</ele>
        <time>2013-12-15T15:50:39Z</time>
      </trkpt>
      <trkpt lat="45.43562" lon="6.19545">
        <ele>1762</ele>
        <time>2013-12-15T15:50:53Z</time>
      </trkpt>
      <trkpt lat="45.43544" lon="6.19555">
        <ele>1760</ele>
        <time>2013-12-15T15:51:08Z</time>
      </trkpt>
      <trkpt lat="45.43526" lon="6.19563">
        <ele>1756</ele>
        <time>2013-12-15T15:51:23Z</time>
      </trkpt>
      <trkpt lat="45.43507" lon="6.19565">
        <ele>1753</ele>
        <time>2013-12-15T15:51:35Z</time>
      </trkpt>
      <trkpt lat="45.43488" lon="6.19564">
        <ele>1732</ele>
        <time>2013-12-15T15:54:01Z</time>
      </trkpt>
      <trkpt lat="45.43487" lon="6.19538">
        <ele>1724</ele>
        <time>2013-12-15T15:54:29Z</time>
      </trkpt>
      <trkpt lat="45.43502" lon="6.19524">
        <ele>1745</ele>
        <time>2013-12-15T15:54:48Z</time>
      </trkpt>
      <trkpt lat="45.43504" lon="6.19498">
        <ele>1728</ele>
        <time>2013-12-15T15:55:05Z</time>
      </trkpt>
      <trkpt lat="45.43518" lon="6.19479">
        <ele>1732</ele>
        <time>2013-12-15T15:55:17Z</time>
      </trkpt>
      <trkpt lat="45.43532" lon="6.19463">
        <ele>1733</ele>
        <time>2013-12-15T15:55:30Z</time>
      </trkpt>
      <trkpt lat="45.43537" lon="6.19438">
        <ele>1731</ele>
        <time>2013-12-15T15:55:44Z</time>
      </trkpt>
      <trkpt lat="45.43546" lon="6.19415">
        <ele>1718</ele>
        <time>2013-12-15T15:55:57Z</time>
      </trkpt>
      <trkpt lat="45.43554" lon="6.19392">
        <ele>1718</ele>
        <time>2013-12-15T15:56:09Z</time>
      </trkpt>
      <trkpt lat="45.43564" lon="6.19363">
        <ele>1715</ele>
        <time>2013-12-15T15:56:24Z</time>
      </trkpt>
      <trkpt lat="45.43572" lon="6.19339">
        <ele>1715</ele>
        <time>2013-12-15T15:56:37Z</time>
      </trkpt>
      <trkpt lat="45.43581" lon="6.19318">
        <ele>1705</ele>
        <time>2013-12-15T15:56:57Z</time>
      </trkpt>
      <trkpt lat="45.43591" lon="6.19295">
        <ele>1724</ele>
        <time>2013-12-15T15:57:06Z</time>
      </trkpt>
      <trkpt lat="45.43601" lon="6.19272">
        <ele>1721</ele>
        <time>2013-12-15T15:57:19Z</time>
      </trkpt>
      <trkpt lat="45.43612" lon="6.19251">
        <ele>1722</ele>
        <time>2013-12-15T15:57:31Z</time>
      </trkpt>
      <trkpt lat="45.43625" lon="6.19232">
        <ele>1716</ele>
        <time>2013-12-15T15:57:48Z</time>
      </trkpt>
      <trkpt lat="45.43629" lon="6.19206">
        <ele>1714</ele>
        <time>2013-12-15T15:58:06Z</time>
      </trkpt>
      <trkpt lat="45.43636" lon="6.19179">
        <ele>1715</ele>
        <time>2013-12-15T15:58:16Z</time>
      </trkpt>
      <trkpt lat="45.43644" lon="6.19156">
        <ele>1708</ele>
        <time>2013-12-15T15:58:31Z</time>
      </trkpt>
      <trkpt lat="45.43653" lon="6.1913">
        <ele>1706</ele>
        <time>2013-12-15T15:58:48Z</time>
      </trkpt>
      <trkpt lat="45.43661" lon="6.19106">
        <ele>1707</ele>
        <time>2013-12-15T15:59:05Z</time>
      </trkpt>
      <trkpt lat="45.43658" lon="6.1908">
        <ele>1708</ele>
        <time>2013-12-15T15:59:18Z</time>
      </trkpt>
      <trkpt lat="45.43646" lon="6.19059">
        <ele>1697</ele>
        <time>2013-12-15T15:59:30Z</time>
      </trkpt>
      <trkpt lat="45.43643" lon="6.19033">
        <ele>1694</ele>
        <time>2013-12-15T15:59:51Z</time>
      </trkpt>
      <trkpt lat="45.43643" lon="6.19003">
        <ele>1696</ele>
        <time>2013-12-15T16:00:06Z</time>
      </trkpt>
      <trkpt lat="45.43644" lon="6.18975">
        <ele>1692</ele>
        <time>2013-12-15T16:00:23Z</time>
      </trkpt>
      <trkpt lat="45.43641" lon="6.18949">
        <ele>1690</ele>
        <time>2013-12-15T16:00:35Z</time>
      </trkpt>
      <trkpt lat="45.43634" lon="6.18923">
        <ele>1690</ele>
        <time>2013-12-15T16:00:48Z</time>
      </trkpt>
      <trkpt lat="45.43635" lon="6.18897">
        <ele>1686</ele>
        <time>2013-12-15T16:01:03Z</time>
      </trkpt>
      <trkpt lat="45.43644" lon="6.18872">
        <ele>1686</ele>
        <time>2013-12-15T16:01:15Z</time>
      </trkpt>
      <trkpt lat="45.43653" lon="6.18848">
        <ele>1691</ele>
        <time>2013-12-15T16:05:26Z</time>
      </trkpt>
      <trkpt lat="45.43659" lon="6.18822">
        <ele>1688</ele>
        <time>2013-12-15T16:05:39Z</time>
      </trkpt>
      <trkpt lat="45.43671" lon="6.18801">
        <ele>1704</ele>
        <time>2013-12-15T16:05:51Z</time>
      </trkpt>
      <trkpt lat="45.43684" lon="6.18784">
        <ele>1702</ele>
        <time>2013-12-15T16:06:04Z</time>
      </trkpt>
      <trkpt lat="45.43699" lon="6.18768">
        <ele>1702</ele>
        <time>2013-12-15T16:06:27Z</time>
      </trkpt>
      <trkpt lat="45.43719" lon="6.18764">
        <ele>1705</ele>
        <time>2013-12-15T16:06:37Z</time>
      </trkpt>
      <trkpt lat="45.43735" lon="6.18752">
        <ele>1705</ele>
        <time>2013-12-15T16:07:03Z</time>
      </trkpt>
      <trkpt lat="45.43752" lon="6.18743">
        <ele>1699</ele>
        <time>2013-12-15T16:07:15Z</time>
      </trkpt>
      <trkpt lat="45.4377" lon="6.18738">
        <ele>1692</ele>
        <time>2013-12-15T16:07:29Z</time>
      </trkpt>
      <trkpt lat="45.43788" lon="6.18728">
        <ele>1689</ele>
        <time>2013-12-15T16:07:51Z</time>
      </trkpt>
      <trkpt lat="45.43807" lon="6.1872">
        <ele>1688</ele>
        <time>2013-12-15T16:08:02Z</time>
      </trkpt>
      <trkpt lat="45.43826" lon="6.18715">
        <ele>1688</ele>
        <time>2013-12-15T16:08:10Z</time>
      </trkpt>
      <trkpt lat="45.43844" lon="6.18711">
        <ele>1693</ele>
        <time>2013-12-15T16:08:25Z</time>
      </trkpt>
      <trkpt lat="45.43826" lon="6.18711">
        <ele>1687</ele>
        <time>2013-12-15T16:09:32Z</time>
      </trkpt>
      <trkpt lat="45.43836" lon="6.18687">
        <ele>1682</ele>
        <time>2013-12-15T16:10:03Z</time>
      </trkpt>
      <trkpt lat="45.43852" lon="6.18673">
        <ele>1680</ele>
        <time>2013-12-15T16:10:18Z</time>
      </trkpt>
      <trkpt lat="45.43869" lon="6.18663">
        <ele>1657</ele>
        <time>2013-12-15T16:10:33Z</time>
      </trkpt>
      <trkpt lat="45.43886" lon="6.18652">
        <ele>1658</ele>
        <time>2013-12-15T16:10:49Z</time>
      </trkpt>
      <trkpt lat="45.43904" lon="6.18642">
        <ele>1658</ele>
        <time>2013-12-15T16:11:01Z</time>
      </trkpt>
      <trkpt lat="45.43917" lon="6.18623">
        <ele>1661</ele>
        <time>2013-12-15T16:11:20Z</time>
      </trkpt>
      <trkpt lat="45.43932" lon="6.18609">
        <ele>1657</ele>
        <time>2013-12-15T16:11:43Z</time>
      </trkpt>
      <trkpt lat="45.43946" lon="6.18591">
        <ele>1655</ele>
        <time>2013-12-15T16:12:07Z</time>
      </trkpt>
      <trkpt lat="45.43957" lon="6.1857">
        <ele>1630</ele>
        <time>2013-12-15T16:12:31Z</time>
      </trkpt>
      <trkpt lat="45.43971" lon="6.18551">
        <ele>1628</ele>
        <time>2013-12-15T16:12:45Z</time>
      </trkpt>
      <trkpt lat="45.43985" lon="6.18532">
        <ele>1624</ele>
        <time>2013-12-15T16:13:04Z</time>
      </trkpt>
      <trkpt lat="45.44002" lon="6.18516">
        <ele>1628</ele>
        <time>2013-12-15T16:13:29Z</time>
      </trkpt>
      <trkpt lat="45.44016" lon="6.18497">
        <ele>1613</ele>
        <time>2013-12-15T16:14:09Z</time>
      </trkpt>
      <trkpt lat="45.4403" lon="6.18482">
        <ele>1613</ele>
        <time>2013-12-15T16:14:19Z</time>
      </trkpt>
      <trkpt lat="45.44047" lon="6.18466">
        <ele>1613</ele>
        <time>2013-12-15T16:14:31Z</time>
      </trkpt>
      <trkpt lat="45.44059" lon="6.18447">
        <ele>1612</ele>
        <time>2013-12-15T16:14:52Z</time>
      </trkpt>
      <trkpt lat="45.44063" lon="6.1842">
        <ele>1611</ele>
        <time>2013-12-15T16:17:23Z</time>
      </trkpt>
      <trkpt lat="45.44069" lon="6.18395">
        <ele>1592</ele>
        <time>2013-12-15T16:17:35Z</time>
      </trkpt>
      <trkpt lat="45.44076" lon="6.18371">
        <ele>1586</ele>
        <time>2013-12-15T16:17:52Z</time>
      </trkpt>
      <trkpt lat="45.44087" lon="6.1835">
        <ele>1604</ele>
        <time>2013-12-15T16:18:06Z</time>
      </trkpt>
      <trkpt lat="45.44097" lon="6.18328">
        <ele>1592</ele>
        <time>2013-12-15T16:18:20Z</time>
      </trkpt>
      <trkpt lat="45.44106" lon="6.18306">
        <ele>1596</ele>
        <time>2013-12-15T16:18:33Z</time>
      </trkpt>
      <trkpt lat="45.44112" lon="6.18282">
        <ele>1594</ele>
        <time>2013-12-15T16:18:45Z</time>
      </trkpt>
      <trkpt lat="45.44118" lon="6.18258">
        <ele>1593</ele>
        <time>2013-12-15T16:19:01Z</time>
      </trkpt>
      <trkpt lat="45.4413" lon="6.18238">
        <ele>1585</ele>
        <time>2013-12-15T16:19:10Z</time>
      </trkpt>
      <trkpt lat="45.44137" lon="6.18213">
        <ele>1585</ele>
        <time>2013-12-15T16:19:22Z</time>
      </trkpt>
      <trkpt lat="45.44139" lon="6.18186">
        <ele>1583</ele>
        <time>2013-12-15T16:19:40Z</time>
      </trkpt>
      <trkpt lat="45.44141" lon="6.1816">
        <ele>1576</ele>
        <time>2013-12-15T16:19:56Z</time>
      </trkpt>
      <trkpt lat="45.44145" lon="6.18134">
        <ele>1573</ele>
        <time>2013-12-15T16:20:09Z</time>
      </trkpt>
      <trkpt lat="45.44146" lon="6.18108">
        <ele>1571</ele>
        <time>2013-12-15T16:20:21Z</time>
      </trkpt>
      <trkpt lat="45.44142" lon="6.18081">
        <ele>1564</ele>
        <time>2013-12-15T16:20:41Z</time>
      </trkpt>
      <trkpt lat="45.44137" lon="6.18056">
        <ele>1559</ele>
        <time>2013-12-15T16:20:58Z</time>
      </trkpt>
      <trkpt lat="45.44128" lon="6.18033">
        <ele>1555</ele>
        <time>2013-12-15T16:21:07Z</time>
      </trkpt>
      <trkpt lat="45.44124" lon="6.18008">
        <ele>1553</ele>
        <time>2013-12-15T16:21:24Z</time>
      </trkpt>
      <trkpt lat="45.44121" lon="6.17981">
        <ele>1544</ele>
        <time>2013-12-15T16:21:40Z</time>
      </trkpt>
      <trkpt lat="45.44119" lon="6.17956">
        <ele>1542</ele>
        <time>2013-12-15T16:21:52Z</time>
      </trkpt>
      <trkpt lat="45.44119" lon="6.1793">
        <ele>1540</ele>
        <time>2013-12-15T16:22:10Z</time>
      </trkpt>
      <trkpt lat="45.44128" lon="6.17905">
        <ele>1532</ele>
        <time>2013-12-15T16:22:23Z</time>
      </trkpt>
      <trkpt lat="45.44137" lon="6.17882">
        <ele>1532</ele>
        <time>2013-12-15T16:22:40Z</time>
      </trkpt>
      <trkpt lat="45.44146" lon="6.17859">
        <ele>1532</ele>
        <time>2013-12-15T16:22:57Z</time>
      </trkpt>
      <trkpt lat="45.44157" lon="6.17838">
        <ele>1536</ele>
        <time>2013-12-15T16:23:10Z</time>
      </trkpt>
      <trkpt lat="45.44169" lon="6.17818">
        <ele>1537</ele>
        <time>2013-12-15T16:23:31Z</time>
      </trkpt>
      <trkpt lat="45.44185" lon="6.17802">
        <ele>1534</ele>
        <time>2013-12-15T16:23:42Z</time>
      </trkpt>
      <trkpt lat="45.44195" lon="6.17781">
        <ele>1530</ele>
        <time>2013-12-15T16:24:02Z</time>
      </trkpt>
      <trkpt lat="45.44204" lon="6.17755">
        <ele>1528</ele>
        <time>2013-12-15T16:24:18Z</time>
      </trkpt>
      <trkpt lat="45.44208" lon="6.1773">
        <ele>1511</ele>
        <time>2013-12-15T16:24:27Z</time>
      </trkpt>
      <trkpt lat="45.44219" lon="6.17708">
        <ele>1509</ele>
        <time>2013-12-15T16:24:43Z</time>
      </trkpt>
      <trkpt lat="45.44222" lon="6.17682">
        <ele>1507</ele>
        <time>2013-12-15T16:25:08Z</time>
      </trkpt>
      <trkpt lat="45.44228" lon="6.17658">
        <ele>1493</ele>
        <time>2013-12-15T16:25:21Z</time>
      </trkpt>
      <trkpt lat="45.44243" lon="6.17644">
        <ele>1494</ele>
        <time>2013-12-15T16:25:29Z</time>
      </trkpt>
      <trkpt lat="45.44251" lon="6.17619">
        <ele>1495</ele>
        <time>2013-12-15T16:25:49Z</time>
      </trkpt>
      <trkpt lat="45.44255" lon="6.17594">
        <ele>1491</ele>
        <time>2013-12-15T16:26:05Z</time>
      </trkpt>
      <trkpt lat="45.44267" lon="6.17573">
        <ele>1484</ele>
        <time>2013-12-15T16:26:25Z</time>
      </trkpt>
      <trkpt lat="45.44277" lon="6.17595">
        <ele>1492</ele>
        <time>2013-12-15T16:26:38Z</time>
      </trkpt>
      <trkpt lat="45.44289" lon="6.17616">
        <ele>1493</ele>
        <time>2013-12-15T16:26:49Z</time>
      </trkpt>
      <trkpt lat="45.44303" lon="6.17633">
        <ele>1493</ele>
        <time>2013-12-15T16:27:11Z</time>
      </trkpt>
      <trkpt lat="45.44318" lon="6.17651">
        <ele>1493</ele>
        <time>2013-12-15T16:27:22Z</time>
      </trkpt>
      <trkpt lat="45.44334" lon="6.17665">
        <ele>1490</ele>
        <time>2013-12-15T16:27:37Z</time>
      </trkpt>
      <trkpt lat="45.44354" lon="6.17665">
        <ele>1481</ele>
        <time>2013-12-15T16:27:55Z</time>
      </trkpt>
      <trkpt lat="45.44371" lon="6.17676">
        <ele>1486</ele>
        <time>2013-12-15T16:28:07Z</time>
      </trkpt>
      <trkpt lat="45.44387" lon="6.17688">
        <ele>1484</ele>
        <time>2013-12-15T16:28:22Z</time>
      </trkpt>
      <trkpt lat="45.44406" lon="6.17688">
        <ele>1480</ele>
        <time>2013-12-15T16:28:49Z</time>
      </trkpt>
      <trkpt lat="45.44425" lon="6.17689">
        <ele>1464</ele>
        <time>2013-12-15T16:28:53Z</time>
      </trkpt>
      <trkpt lat="45.44442" lon="6.17697">
        <ele>1462</ele>
        <time>2013-12-15T16:29:06Z</time>
      </trkpt>
      <trkpt lat="45.44461" lon="6.17697">
        <ele>1459</ele>
        <time>2013-12-15T16:29:21Z</time>
      </trkpt>
      <trkpt lat="45.44465" lon="6.1767">
        <ele>1455</ele>
        <time>2013-12-15T16:29:29Z</time>
      </trkpt>
      <trkpt lat="45.44457" lon="6.17645">
        <ele>1444</ele>
        <time>2013-12-15T16:29:42Z</time>
      </trkpt>
      <trkpt lat="45.44444" lon="6.17625">
        <ele>1444</ele>
        <time>2013-12-15T16:29:53Z</time>
      </trkpt>
      <trkpt lat="45.44429" lon="6.17608">
        <ele>1445</ele>
        <time>2013-12-15T16:30:06Z</time>
      </trkpt>
      <trkpt lat="45.44419" lon="6.17582">
        <ele>1447</ele>
        <time>2013-12-15T16:30:18Z</time>
      </trkpt>
      <trkpt lat="45.44434" lon="6.17568">
        <ele>1436</ele>
        <time>2013-12-15T16:30:30Z</time>
      </trkpt>
      <trkpt lat="45.44444" lon="6.17546">
        <ele>1430</ele>
        <time>2013-12-15T16:30:47Z</time>
      </trkpt>
      <trkpt lat="45.44449" lon="6.1752">
        <ele>1428</ele>
        <time>2013-12-15T16:31:03Z</time>
      </trkpt>
      <trkpt lat="45.44451" lon="6.17493">
        <ele>1421</ele>
        <time>2013-12-15T16:31:20Z</time>
      </trkpt>
      <trkpt lat="45.44456" lon="6.17468">
        <ele>1418</ele>
        <time>2013-12-15T16:31:35Z</time>
      </trkpt>
      <trkpt lat="45.44461" lon="6.17443">
        <ele>1415</ele>
        <time>2013-12-15T16:31:55Z</time>
      </trkpt>
      <trkpt lat="45.44469" lon="6.1742">
        <ele>1411</ele>
        <time>2013-12-15T16:32:09Z</time>
      </trkpt>
      <trkpt lat="45.4447" lon="6.17391">
        <ele>1403</ele>
        <time>2013-12-15T16:32:26Z</time>
      </trkpt>
      <trkpt lat="45.44463" lon="6.17366">
        <ele>1403</ele>
        <time>2013-12-15T16:32:46Z</time>
      </trkpt>
      <trkpt lat="45.44453" lon="6.17345">
        <ele>1404</ele>
        <time>2013-12-15T16:32:57Z</time>
      </trkpt>
      <trkpt lat="45.44443" lon="6.17322">
        <ele>1400</ele>
        <time>2013-12-15T16:33:11Z</time>
      </trkpt>
      <trkpt lat="45.44441" lon="6.17296">
        <ele>1397</ele>
        <time>2013-12-15T16:33:25Z</time>
      </trkpt>
      <trkpt lat="45.44444" lon="6.17269">
        <ele>1396</ele>
        <time>2013-12-15T16:33:38Z</time>
      </trkpt>
      <trkpt lat="45.44434" lon="6.17247">
        <ele>1396</ele>
        <time>2013-12-15T16:33:53Z</time>
      </trkpt>
      <trkpt lat="45.44442" lon="6.17223">
        <ele>1390</ele>
        <time>2013-12-15T16:34:11Z</time>
      </trkpt>
      <trkpt lat="45.44457" lon="6.17207">
        <ele>1385</ele>
        <time>2013-12-15T16:34:25Z</time>
      </trkpt>
      <trkpt lat="45.44472" lon="6.1719">
        <ele>1381</ele>
        <time>2013-12-15T16:34:39Z</time>
      </trkpt>
      <trkpt lat="45.44481" lon="6.17168">
        <ele>1375</ele>
        <time>2013-12-15T16:34:53Z</time>
      </trkpt>
      <trkpt lat="45.44479" lon="6.17142">
        <ele>1372</ele>
        <time>2013-12-15T16:35:09Z</time>
      </trkpt>
      <trkpt lat="45.44468" lon="6.1712">
        <ele>1373</ele>
        <time>2013-12-15T16:35:22Z</time>
      </trkpt>
      <trkpt lat="45.44464" lon="6.17095">
        <ele>1371</ele>
        <time>2013-12-15T16:35:38Z</time>
      </trkpt>
      <trkpt lat="45.44463" lon="6.17068">
        <ele>1361</ele>
        <time>2013-12-15T16:38:50Z</time>
      </trkpt>
      <trkpt lat="45.44459" lon="6.17042">
        <ele>1360</ele>
        <time>2013-12-15T16:39:03Z</time>
      </trkpt>
      <trkpt lat="45.4445" lon="6.17018">
        <ele>1360</ele>
        <time>2013-12-15T16:39:19Z</time>
      </trkpt>
      <trkpt lat="45.44451" lon="6.16992">
        <ele>1352</ele>
        <time>2013-12-15T16:39:35Z</time>
      </trkpt>
      <trkpt lat="45.44449" lon="6.16967">
        <ele>1350</ele>
        <time>2013-12-15T16:39:52Z</time>
      </trkpt>
    </trkseg>
  </trk>
</gpx>